createdAt,value
2022-12-13T00:01:54.682Z,-2.76
2022-12-13T00:04:25.030Z,-2.95
2022-12-13T00:06:54.459Z,-2.75
2022-12-13T00:09:22.372Z,-2.64
2022-12-13T00:11:50.823Z,-2.55
2022-12-13T00:14:18.551Z,-2.61
2022-12-13T00:16:48.652Z,-2.49
2022-12-13T00:19:17.267Z,-2.39
2022-12-13T00:21:45.167Z,-2.39
2022-12-13T00:24:12.900Z,-2.66
2022-12-13T00:26:40.620Z,-2.70
2022-12-13T00:29:09.609Z,-3.00
2022-12-13T00:34:25.658Z,-2.75
2022-12-13T00:36:55.436Z,-2.77
2022-12-13T00:39:23.303Z,-2.93
2022-12-13T00:41:51.047Z,-2.71
2022-12-13T00:44:19.967Z,-2.63
2022-12-13T00:46:47.772Z,-2.64
2022-12-13T00:49:15.734Z,-2.70
2022-12-13T00:51:43.488Z,-2.86
2022-12-13T00:54:11.789Z,-2.75
2022-12-13T00:56:39.575Z,-2.78
2022-12-13T00:59:07.483Z,-2.63
2022-12-13T01:01:37.645Z,-2.48
2022-12-13T01:04:07.128Z,-2.58
2022-12-13T01:06:45.679Z,-2.36
2022-12-13T01:09:20.012Z,-2.44
2022-12-13T01:11:48.480Z,-2.56
2022-12-13T01:14:17.368Z,-2.68
2022-12-13T01:16:45.150Z,-2.63
2022-12-13T01:19:12.921Z,-2.53
2022-12-13T01:21:40.782Z,-2.62
2022-12-13T01:24:09.095Z,-2.54
2022-12-13T01:26:36.799Z,-2.56
2022-12-13T01:29:05.669Z,-2.58
2022-12-13T01:31:33.680Z,-2.63
2022-12-13T01:34:10.451Z,-2.78
2022-12-13T01:36:39.151Z,-2.74
2022-12-13T01:39:07.760Z,-3.15
2022-12-13T01:41:43.562Z,-2.61
2022-12-13T01:44:49.080Z,-2.56
2022-12-13T01:47:19.426Z,-2.89
2022-12-13T01:49:47.562Z,-2.73
2022-12-13T01:52:17.432Z,-2.61
2022-12-13T01:54:50.230Z,-2.51
2022-12-13T01:57:21.113Z,-2.60
2022-12-13T01:59:51.462Z,-2.36
2022-12-13T02:02:19.259Z,-2.52
2022-12-13T02:04:46.997Z,-2.76
2022-12-13T02:07:23.252Z,-2.68
2022-12-13T02:09:58.391Z,-2.52
2022-12-13T02:12:30.639Z,-2.71
2022-12-13T02:15:01.766Z,-2.81
2022-12-13T02:17:45.513Z,-2.46
2022-12-13T02:20:37.353Z,-2.59
2022-12-13T02:23:53.662Z,-2.35
2022-12-13T02:26:46.112Z,-2.57
2022-12-13T02:29:51.369Z,-2.59
2022-12-13T02:32:38.939Z,-2.64
2022-12-13T02:35:16.635Z,-2.84
2022-12-13T02:37:54.096Z,-2.74
2022-12-13T02:40:33.754Z,-2.62
2022-12-13T02:43:18.290Z,-2.74
2022-12-13T02:45:55.217Z,-2.73
2022-12-13T02:48:28.353Z,-2.51
2022-12-13T02:50:58.822Z,-2.43
2022-12-13T02:53:27.859Z,-2.38
2022-12-13T02:55:55.542Z,-2.38
2022-12-13T02:58:28.998Z,-2.49
2022-12-13T03:01:28.827Z,-2.55
2022-12-13T03:04:12.585Z,-2.52
2022-12-13T03:06:54.361Z,-2.36
2022-12-13T03:09:44.056Z,-2.30
2022-12-13T03:12:29.042Z,-2.35
2022-12-13T03:15:10.552Z,-2.24
2022-12-13T03:17:48.752Z,-2.11
2022-12-13T03:20:23.752Z,-2.24
2022-12-13T03:22:52.947Z,-2.25
2022-12-13T03:25:31.367Z,-2.38
2022-12-13T03:28:02.496Z,-2.29
2022-12-13T03:30:33.162Z,-2.18
2022-12-13T03:33:01.142Z,-2.20
2022-12-13T03:35:34.733Z,-2.37
2022-12-13T03:38:23.037Z,-2.48
2022-12-13T03:40:54.800Z,-2.49
2022-12-13T03:43:23.238Z,-2.40
2022-12-13T03:45:52.507Z,-2.25
2022-12-13T03:48:22.525Z,-2.38
2022-12-13T03:50:55.147Z,-2.56
2022-12-13T03:53:33.552Z,-2.53
2022-12-13T03:56:06.787Z,-2.23
2022-12-13T03:58:38.094Z,-2.18
2022-12-13T04:01:08.310Z,-2.24
2022-12-13T04:03:37.112Z,-2.24
2022-12-13T04:06:05.831Z,-2.11
2022-12-13T04:08:34.846Z,-2.06
2022-12-13T04:11:24.777Z,-2.21
2022-12-13T04:13:53.371Z,-2.03
2022-12-13T04:16:21.603Z,-2.10
2022-12-13T04:18:49.566Z,-2.16
2022-12-13T04:21:17.655Z,-2.27
2022-12-13T04:23:45.398Z,-2.09
2022-12-13T04:26:13.324Z,-2.03
2022-12-13T04:28:41.152Z,-2.08
2022-12-13T04:31:08.915Z,-2.28
2022-12-13T04:33:36.667Z,-2.27
2022-12-13T04:36:04.750Z,-2.18
2022-12-13T04:38:32.457Z,-2.31
2022-12-13T04:41:14.426Z,-2.36
2022-12-13T04:43:42.168Z,-2.47
2022-12-13T04:46:09.966Z,-2.46
2022-12-13T04:48:37.663Z,-2.52
2022-12-13T04:51:05.367Z,-2.54
2022-12-13T04:53:33.115Z,-2.57
2022-12-13T04:56:00.880Z,-2.37
2022-12-13T04:58:29.012Z,-2.50
2022-12-13T05:00:57.298Z,-2.25
2022-12-13T05:03:25.190Z,-2.28
2022-12-13T05:05:52.858Z,-2.26
2022-12-13T05:08:21.235Z,-2.26
2022-12-13T05:10:49.229Z,-2.34
2022-12-13T05:13:17.427Z,-2.24
2022-12-13T05:15:47.447Z,-2.29
2022-12-13T05:18:18.465Z,-2.33
2022-12-13T05:20:46.135Z,-2.21
2022-12-13T05:23:13.866Z,-2.26
2022-12-13T05:25:50.269Z,-2.33
2022-12-13T05:28:27.625Z,-2.24
2022-12-13T05:30:58.529Z,-2.30
2022-12-13T05:33:26.933Z,-2.31
2022-12-13T05:35:59.778Z,-2.34
2022-12-13T05:38:29.439Z,-2.59
2022-12-13T05:40:57.221Z,-2.57
2022-12-13T05:43:43.284Z,-2.42
2022-12-13T05:46:12.723Z,-2.22
2022-12-13T05:48:41.203Z,-2.31
2022-12-13T05:51:12.054Z,-2.34
2022-12-13T05:53:41.851Z,-2.50
2022-12-13T05:56:11.410Z,-2.40
2022-12-13T05:58:40.407Z,-2.34
2022-12-13T06:01:13.628Z,-2.40
2022-12-13T06:03:42.512Z,-2.56
2022-12-13T06:06:12.532Z,-2.56
2022-12-13T06:08:41.084Z,-2.54
2022-12-13T06:11:11.759Z,-2.60
2022-12-13T06:13:44.487Z,-2.60
2022-12-13T06:16:21.815Z,-2.51
2022-12-13T06:18:55.768Z,-2.68
2022-12-13T06:21:33.372Z,-2.64
2022-12-13T06:24:15.262Z,-2.65
2022-12-13T06:26:45.236Z,-2.51
2022-12-13T06:29:23.234Z,-2.81
2022-12-13T06:32:01.661Z,-2.81
2022-12-13T06:34:31.845Z,-3.11
2022-12-13T06:37:00.889Z,-3.07
2022-12-13T06:39:38.901Z,-3.01
2022-12-13T06:42:11.750Z,-2.91
2022-12-13T06:44:39.380Z,-3.06
2022-12-13T06:47:11.509Z,-2.80
2022-12-13T06:49:42.431Z,-2.48
2022-12-13T06:52:13.179Z,-2.43
2022-12-13T06:54:41.617Z,-2.81
2022-12-13T06:57:09.724Z,-2.93
2022-12-13T06:59:37.805Z,-2.99
2022-12-13T07:02:06.708Z,-2.64
2022-12-13T07:04:53.225Z,-2.44
2022-12-13T07:07:20.881Z,-2.44
2022-12-13T07:09:48.954Z,-2.73
2022-12-13T07:12:16.689Z,-2.84
2022-12-13T07:14:44.406Z,-2.57
2022-12-13T07:17:12.160Z,-2.65
2022-12-13T07:19:40.204Z,-2.55
2022-12-13T07:22:08.111Z,-2.59
2022-12-13T07:24:36.288Z,-2.39
2022-12-13T07:27:04.954Z,-2.61
2022-12-13T07:29:32.690Z,-2.78
2022-12-13T07:32:01.922Z,-2.76
2022-12-13T07:34:30.836Z,-2.55
2022-12-13T07:36:58.686Z,-2.57
2022-12-13T07:39:27.151Z,-2.53
2022-12-13T07:41:56.952Z,-2.55
2022-12-13T07:44:25.615Z,-2.49
2022-12-13T07:46:53.874Z,-2.35
2022-12-13T07:49:21.687Z,-2.45
2022-12-13T07:51:49.764Z,-2.33
2022-12-13T07:54:17.963Z,-2.22
2022-12-13T07:56:46.115Z,-2.18
2022-12-13T07:59:14.091Z,-2.09
2022-12-13T08:01:41.863Z,-2.29
2022-12-13T08:04:10.378Z,-2.14
2022-12-13T08:06:39.528Z,-2.22
2022-12-13T08:09:07.270Z,-2.09
2022-12-13T08:11:35.350Z,-2.10
2022-12-13T08:14:03.138Z,-2.12
2022-12-13T08:16:31.005Z,-2.16
2022-12-13T08:19:03.162Z,-2.02
2022-12-13T08:21:57.237Z,-2.07
2022-12-13T08:24:30.111Z,-1.94
2022-12-13T08:27:03.390Z,-1.92
2022-12-13T08:29:36.236Z,-1.90
2022-12-13T08:32:12.968Z,-1.95
2022-12-13T08:34:41.739Z,-1.80
2022-12-13T08:37:09.753Z,-1.87
2022-12-13T08:39:39.186Z,-1.94
2022-12-13T08:42:16.018Z,-1.81
2022-12-13T08:44:47.651Z,-1.58
2022-12-13T08:47:24.460Z,-1.66
2022-12-13T08:50:02.318Z,-1.57
2022-12-13T08:52:32.122Z,-1.58
2022-12-13T08:55:09.579Z,-1.50
2022-12-13T08:57:38.245Z,-1.43
2022-12-13T09:00:07.282Z,-1.45
2022-12-13T09:02:37.814Z,-1.54
2022-12-13T09:05:07.842Z,-1.55
2022-12-13T09:07:36.923Z,-1.43
2022-12-13T09:10:25.470Z,-1.32
2022-12-13T09:13:01.862Z,-1.36
2022-12-13T09:15:33.923Z,-1.59
2022-12-13T09:18:05.180Z,-1.40
2022-12-13T09:20:41.703Z,-1.33
2022-12-13T09:23:13.519Z,-1.29
2022-12-13T09:25:45.987Z,-1.51
2022-12-13T09:28:20.419Z,-1.36
2022-12-13T09:30:48.253Z,-1.41
2022-12-13T09:33:17.567Z,-1.32
2022-12-13T09:35:57.517Z,-1.41
2022-12-13T09:38:25.351Z,-1.34
2022-12-13T09:40:58.182Z,-1.47
2022-12-13T09:43:33.094Z,-1.50
2022-12-13T09:46:13.021Z,-1.14
2022-12-13T09:48:42.189Z,-1.26
2022-12-13T09:51:28.739Z,-1.20
2022-12-13T09:54:05.311Z,-1.13
2022-12-13T09:56:34.355Z,-1.17
2022-12-13T09:59:03.616Z,-1.17
2022-12-13T10:01:31.346Z,-1.23
2022-12-13T10:04:01.488Z,-1.28
2022-12-13T10:06:32.720Z,-1.41
2022-12-13T10:09:01.655Z,-1.46
2022-12-13T10:11:32.558Z,-1.51
2022-12-13T10:14:09.698Z,-1.36
2022-12-13T10:16:37.564Z,-1.26
2022-12-13T10:19:41.030Z,-1.29
2022-12-13T10:22:17.320Z,-1.14
2022-12-13T10:24:57.400Z,-1.03
2022-12-13T10:27:41.542Z,-1.18
2022-12-13T10:30:11.099Z,-1.16
2022-12-13T10:32:58.421Z,-1.27
2022-12-13T10:35:29.126Z,-1.37
2022-12-13T10:37:58.995Z,-1.30
2022-12-13T10:40:40.861Z,-1.31
2022-12-13T10:43:10.038Z,-1.38
2022-12-13T10:45:37.870Z,-1.35
2022-12-13T10:48:05.989Z,-1.18
2022-12-13T10:50:34.012Z,-0.98
2022-12-13T10:53:02.962Z,-0.94
2022-12-13T10:55:34.671Z,-0.82
2022-12-13T10:58:07.284Z,-0.81
2022-12-13T11:00:46.409Z,-0.82
2022-12-13T11:03:30.993Z,-1.04
2022-12-13T11:06:07.898Z,-1.07
2022-12-13T11:08:35.697Z,-1.04
2022-12-13T11:11:07.243Z,-1.10
2022-12-13T11:13:39.419Z,-0.98
2022-12-13T11:16:35.439Z,-1.01
2022-12-13T11:19:08.597Z,-0.88
2022-12-13T11:21:39.549Z,-1.10
2022-12-13T11:24:09.344Z,-0.68
2022-12-13T11:26:42.807Z,-0.55
2022-12-13T11:29:33.747Z,-0.76
2022-12-13T11:32:23.314Z,-0.78
2022-12-13T11:35:03.275Z,-0.64
2022-12-13T11:37:49.341Z,-0.70
2022-12-13T11:40:29.108Z,-0.79
2022-12-13T11:43:03.446Z,-0.71
2022-12-13T11:46:00.212Z,-0.86
2022-12-13T11:49:03.783Z,-0.89
2022-12-13T11:51:44.079Z,-1.06
2022-12-13T11:54:24.533Z,-1.00
2022-12-13T11:57:00.281Z,-0.92
2022-12-13T11:59:43.336Z,-1.03
2022-12-13T12:02:33.629Z,-1.20
2022-12-13T12:05:07.254Z,-1.32
2022-12-13T12:08:12.827Z,-1.11
2022-12-13T12:10:49.045Z,-1.09
2022-12-13T12:13:51.467Z,-1.25
2022-12-13T12:16:38.424Z,-1.30
2022-12-13T12:19:14.607Z,-1.05
2022-12-13T12:22:15.432Z,-1.13
2022-12-13T12:24:55.601Z,-1.17
2022-12-13T12:27:26.146Z,-0.92
2022-12-13T12:30:04.329Z,-0.79
2022-12-13T12:32:43.932Z,-1.06
2022-12-13T12:35:28.928Z,-1.20
2022-12-13T12:38:38.071Z,-1.01
2022-12-13T12:41:18.019Z,-0.83
2022-12-13T12:43:48.744Z,-0.98
2022-12-13T12:47:09.063Z,-1.18
2022-12-13T12:49:37.603Z,-0.93
2022-12-13T12:52:32.824Z,-0.85
2022-12-13T12:55:15.414Z,-0.89
2022-12-13T12:58:01.509Z,-0.87
2022-12-13T13:00:38.393Z,-1.10
2022-12-13T13:03:25.041Z,-0.93
2022-12-13T13:06:03.101Z,-0.77
2022-12-13T13:08:53.398Z,-0.95
2022-12-13T13:11:26.021Z,-0.99
2022-12-13T13:14:01.534Z,-0.94
2022-12-13T13:16:39.466Z,-0.64
2022-12-13T13:19:33.220Z,-0.66
2022-12-13T13:22:02.709Z,-0.83
2022-12-13T13:24:32.842Z,-0.77
2022-12-13T13:27:20.527Z,-0.61
2022-12-13T13:29:48.345Z,-0.67
2022-12-13T13:32:29.044Z,-0.68
2022-12-13T13:35:33.338Z,-0.58
2022-12-13T13:38:25.994Z,-0.85
2022-12-13T13:40:53.768Z,-0.96
2022-12-13T13:43:33.088Z,-1.00
2022-12-13T13:46:04.159Z,-0.70
2022-12-13T13:49:11.569Z,-0.78
2022-12-13T13:55:14.189Z,-0.65
2022-12-13T13:58:21.664Z,-0.56
2022-12-13T14:01:23.955Z,-0.80
2022-12-13T14:04:28.718Z,-0.57
2022-12-13T14:07:15.169Z,-0.70
2022-12-13T14:10:20.310Z,-0.73
2022-12-13T14:13:12.422Z,-0.68
2022-12-13T14:15:50.394Z,-0.75
2022-12-13T14:18:33.345Z,-0.88
2022-12-13T14:21:34.734Z,-0.78
2022-12-13T14:24:40.229Z,-0.65
2022-12-13T14:27:13.908Z,-0.73
2022-12-13T14:29:48.177Z,-0.80
2022-12-13T14:32:32.858Z,-1.00
2022-12-13T14:35:24.863Z,-1.01
2022-12-13T14:37:58.856Z,-0.83
2022-12-13T14:40:48.873Z,-0.84
2022-12-13T14:43:33.625Z,-0.80
2022-12-13T14:46:08.782Z,-0.75
2022-12-13T14:48:48.780Z,-0.69
2022-12-13T14:51:39.505Z,-0.69
2022-12-13T14:54:09.145Z,-0.67
2022-12-13T14:56:36.924Z,-0.83
2022-12-13T14:59:13.843Z,-0.68
2022-12-13T15:01:43.102Z,-0.82
2022-12-13T15:04:23.051Z,-0.81
2022-12-13T15:07:02.263Z,-0.82
2022-12-13T15:09:31.696Z,-0.85
2022-12-13T15:12:23.777Z,-0.83
2022-12-13T15:14:52.572Z,-0.96
2022-12-13T15:17:32.954Z,-0.79
2022-12-13T15:20:31.178Z,-0.88
2022-12-13T15:23:23.253Z,-0.71
2022-12-13T15:26:28.761Z,-0.92
2022-12-13T15:29:09.874Z,-0.95
2022-12-13T15:31:40.476Z,-0.92
2022-12-13T15:34:28.647Z,-0.70
2022-12-13T15:37:03.988Z,-0.89
2022-12-13T15:39:36.629Z,-0.62
2022-12-13T15:42:04.721Z,-0.78
2022-12-13T15:44:37.627Z,-0.80
2022-12-13T15:47:13.336Z,-0.98
2022-12-13T15:49:59.836Z,-0.80
2022-12-13T15:52:40.172Z,-0.73
2022-12-13T15:55:07.888Z,-0.71
2022-12-13T15:57:37.938Z,-0.71
2022-12-13T16:00:08.479Z,-0.68
2022-12-13T16:03:14.466Z,-0.84
2022-12-13T16:05:49.861Z,-0.78
2022-12-13T16:08:41.045Z,-0.80
2022-12-13T16:11:09.923Z,-0.77
2022-12-13T16:13:39.924Z,-0.93
2022-12-13T16:16:27.529Z,-0.84
2022-12-13T16:19:00.798Z,-0.84
2022-12-13T16:21:30.072Z,-0.88
2022-12-13T16:23:57.755Z,-0.92
2022-12-13T16:26:28.114Z,-0.85
2022-12-13T16:28:58.634Z,-0.71
2022-12-13T16:31:31.647Z,-0.78
2022-12-13T16:33:59.391Z,-0.81
2022-12-13T16:36:27.335Z,-0.86
2022-12-13T16:38:55.126Z,-0.74
2022-12-13T16:41:23.114Z,-0.77
2022-12-13T16:43:53.896Z,-0.73
2022-12-13T16:47:14.732Z,-0.82
2022-12-13T16:49:21.632Z,-0.92
2022-12-13T16:51:49.816Z,-1.02
2022-12-13T16:54:21.646Z,-0.99
2022-12-13T16:56:50.783Z,-0.92
2022-12-13T16:59:22.372Z,-1.02
2022-12-13T17:01:51.069Z,-0.89
2022-12-13T17:04:22.444Z,-0.95
2022-12-13T17:06:54.573Z,-1.08
2022-12-13T17:09:22.498Z,-0.88
2022-12-13T17:11:50.226Z,-0.97
2022-12-13T17:14:17.976Z,-0.90
2022-12-13T17:16:45.683Z,-0.88
2022-12-13T17:19:15.560Z,-1.00
2022-12-13T17:21:43.398Z,-1.03
2022-12-13T17:24:11.161Z,-0.89
2022-12-13T17:26:38.826Z,-1.03
2022-12-13T17:29:06.499Z,-0.93
2022-12-13T17:31:36.157Z,-0.95
2022-12-13T17:34:05.418Z,-1.01
2022-12-13T17:36:33.168Z,-0.92
2022-12-13T17:39:00.834Z,-0.84
2022-12-13T17:41:28.659Z,-0.95
2022-12-13T17:44:00.853Z,-0.81
2022-12-13T17:46:28.632Z,-0.91
2022-12-13T17:48:56.389Z,-0.74
2022-12-13T17:51:24.149Z,-0.88
2022-12-13T17:53:52.101Z,-0.86
2022-12-13T17:56:20.384Z,-0.89
2022-12-13T17:58:48.121Z,-0.87
2022-12-13T18:01:21.636Z,-0.91
2022-12-13T18:03:50.251Z,-0.98
2022-12-13T18:06:18.128Z,-1.11
2022-12-13T18:08:46.759Z,-1.19
2022-12-13T18:11:33.833Z,-1.02
2022-12-13T18:14:07.439Z,-1.02
2022-12-13T18:16:38.300Z,-0.94
2022-12-13T18:19:12.877Z,-0.86
2022-12-13T18:21:40.921Z,-0.77
2022-12-13T18:24:08.811Z,-1.09
2022-12-13T18:26:36.574Z,-0.93
2022-12-13T18:29:05.486Z,-0.81
2022-12-13T18:31:33.681Z,-0.92
2022-12-13T18:34:01.500Z,-0.85
2022-12-13T18:36:30.035Z,-0.84
2022-12-13T18:38:58.137Z,-0.78
2022-12-13T18:41:28.452Z,-0.76
2022-12-13T18:44:02.323Z,-0.82
2022-12-13T18:46:32.468Z,-0.79
2022-12-13T18:49:00.284Z,-0.85
2022-12-13T18:51:28.766Z,-0.72
2022-12-13T18:53:57.373Z,-0.76
2022-12-13T18:56:25.789Z,-0.96
2022-12-13T18:58:53.715Z,-0.85
2022-12-13T19:01:22.821Z,-0.86
2022-12-13T19:03:50.943Z,-0.85
2022-12-13T19:06:21.757Z,-0.94
2022-12-13T19:08:57.427Z,-0.90
2022-12-13T19:11:27.286Z,-1.09
2022-12-13T19:13:56.898Z,-0.98
2022-12-13T19:16:26.085Z,-1.03
2022-12-13T19:18:54.403Z,-1.00
2022-12-13T19:21:23.501Z,-0.96
2022-12-13T19:23:57.397Z,-1.13
2022-12-13T19:26:28.168Z,-1.04
2022-12-13T19:29:00.409Z,-1.02
2022-12-13T19:31:32.327Z,-0.97
2022-12-13T19:34:02.508Z,-0.95
2022-12-13T19:36:31.708Z,-0.92
2022-12-13T19:41:46.961Z,-1.02
2022-12-13T19:44:14.684Z,-0.90
2022-12-13T19:46:42.488Z,-0.89
2022-12-13T19:49:12.400Z,-0.91
2022-12-13T19:51:40.280Z,-0.92
2022-12-13T19:54:08.223Z,-0.82
2022-12-13T19:56:36.145Z,-0.92
2022-12-13T19:59:04.012Z,-0.89
2022-12-13T20:01:31.956Z,-0.94
2022-12-13T20:03:59.695Z,-0.94
2022-12-13T20:06:27.461Z,-0.99
2022-12-13T20:08:55.261Z,-1.00
2022-12-13T20:11:24.161Z,-1.01
2022-12-13T20:13:55.637Z,-0.95
2022-12-13T20:16:25.486Z,-1.09
2022-12-13T20:18:58.918Z,-0.96
2022-12-13T20:21:27.815Z,-1.10
2022-12-13T20:23:56.109Z,-1.04
2022-12-13T20:26:30.388Z,-0.92
2022-12-13T20:28:58.789Z,-0.92
2022-12-13T20:31:30.239Z,-0.93
2022-12-13T20:34:03.391Z,-0.93
2022-12-13T20:36:31.802Z,-1.01
2022-12-13T20:39:01.697Z,-1.24
2022-12-13T20:41:32.136Z,-1.23
2022-12-13T20:44:01.482Z,-0.95
2022-12-13T20:46:31.029Z,-1.02
2022-12-13T20:49:01.728Z,-0.96
2022-12-13T20:51:31.797Z,-0.98
2022-12-13T20:53:59.890Z,-0.89
2022-12-13T20:56:30.636Z,-1.11
2022-12-13T20:58:58.702Z,-0.98
2022-12-13T21:01:31.532Z,-1.03
2022-12-13T21:04:01.478Z,-0.95
2022-12-13T21:06:30.536Z,-0.90
2022-12-13T21:09:02.434Z,-0.83
2022-12-13T21:11:40.711Z,-0.90
2022-12-13T21:14:16.985Z,-1.13
2022-12-13T21:16:59.612Z,-1.09
2022-12-13T21:19:35.823Z,-0.99
2022-12-13T21:22:06.949Z,-1.15
2022-12-13T21:24:34.692Z,-0.99
2022-12-13T21:27:02.403Z,-1.05
2022-12-13T21:29:30.119Z,-1.09
2022-12-13T21:31:57.871Z,-1.02
2022-12-13T21:34:25.657Z,-0.93
2022-12-13T21:36:54.125Z,-0.88
2022-12-13T21:39:28.456Z,-0.89
2022-12-13T21:41:56.544Z,-1.02
2022-12-13T21:44:24.589Z,-0.97
2022-12-13T21:49:40.998Z,-0.93
2022-12-13T21:52:08.736Z,-1.03
2022-12-13T21:54:36.401Z,-0.97
2022-12-13T21:57:21.264Z,-0.97
2022-12-13T21:59:48.962Z,-0.94
2022-12-13T22:02:19.464Z,-0.96
2022-12-13T22:04:50.017Z,-0.93
2022-12-13T22:07:23.213Z,-0.91
2022-12-13T22:09:52.465Z,-0.92
2022-12-13T22:12:24.800Z,-1.06
2022-12-13T22:14:53.835Z,-1.09
2022-12-13T22:17:28.262Z,-1.13
2022-12-13T22:20:00.877Z,-1.39
2022-12-13T22:22:28.763Z,-0.99
2022-12-13T22:24:56.455Z,-1.06
2022-12-13T22:27:25.587Z,-1.11
2022-12-13T22:29:56.697Z,-1.08
2022-12-13T22:32:27.037Z,-1.10
2022-12-13T22:34:55.641Z,-1.07
2022-12-13T22:37:24.781Z,-1.08
2022-12-13T22:39:52.553Z,-1.10
2022-12-13T22:42:21.310Z,-1.11
2022-12-13T22:44:49.299Z,-1.16
2022-12-13T22:47:17.047Z,-1.13
2022-12-13T22:49:44.725Z,-1.31
2022-12-13T22:52:16.578Z,-1.27
2022-12-13T22:54:44.207Z,-1.20
2022-12-13T22:57:11.937Z,-1.13
2022-12-13T22:59:39.682Z,-1.20
2022-12-13T23:02:07.745Z,-1.18
2022-12-13T23:04:35.588Z,-1.17
2022-12-13T23:07:03.296Z,-1.07
2022-12-13T23:09:31.381Z,-1.06
2022-12-13T23:12:16.401Z,-1.06
2022-12-13T23:14:44.073Z,-0.97
2022-12-13T23:17:11.844Z,-1.01
2022-12-13T23:19:50.234Z,-1.00
2022-12-13T23:22:25.154Z,-1.09
2022-12-13T23:24:54.048Z,-1.14
2022-12-13T23:27:24.274Z,-0.98
2022-12-13T23:29:52.055Z,-0.93
2022-12-13T23:32:19.765Z,-1.10
2022-12-13T23:34:47.485Z,-0.92
2022-12-13T23:37:15.188Z,-1.07
2022-12-13T23:39:42.977Z,-1.02
2022-12-13T23:42:10.796Z,-1.04
2022-12-13T23:44:38.586Z,-1.08
2022-12-13T23:47:06.321Z,-1.06
2022-12-13T23:49:34.045Z,-1.11
2022-12-13T23:52:01.748Z,-1.11
2022-12-13T23:54:29.437Z,-1.21
2022-12-13T23:56:57.127Z,-1.07
2022-12-13T23:59:26.189Z,-1.07
